EDDK/CGN METAR and TAF weather

Enter ICAO airport designator
Station Type Date Time Source
EDDK METAR 2019/10/18 05:50 UTC NOAA

EDDK 180550Z 16011KT 9999 FEW043 14/11 Q1007 NOSIG


Station Type Date Time Source
EDDK Decoded METAR 2019/10/18 05:50 UTC NOAA

Koeln / Bonn, Germany (EDDK) 50-52N 007-10E 100M
Oct 18, 2019 - 01:50 AM EDT / 2019.10.18 0550 UTC
Wind: from the SSE (160 degrees) at 13 MPH (11 KT):0
Visibility: greater than 7 mile(s):0
Sky conditions: mostly clear
Temperature: 57 F (14 C)
Dew Point: 51 F (11 C)
Relative Humidity: 82%
Pressure (altimeter): 29.74 in. Hg (1007 hPa)
ob: EDDK 180550Z 16011KT 9999 FEW043 14/11 Q1007 NOSIG
cycle: 6

Station Type Date Time Source
EDDK TAF 2019/10/18 06:27 UTC NOAA

TAF EDDK 180500Z 1806/1912 17009KT 9999 BKN040
TEMPO 1808/1815 21015G25KT SHRA BKN030CB PROB30
TEMPO 1809/1813 22020G35KT 4500 TSRA BKN020CB
TEMPO 1909/1912 RA

Example: see airport list